Amorita, Oklahoma
Current Conditions -  °F | °C
As of 9:50 AM on Monday 24 Nov 2014 (Local Time) from KAVK Reporting Station
Clear Clear  
Wind Chill: 32°   Ceiling: Unl
Heat Index: 41°   Visibility: 10mi
Dew Point: 25°   Wind: 21mph
Humidity: 53%   Direction: 290°WNW
Pressure: 29.95"   Gusts: 25mph
Location:  36.92°N, 98.29°W
Report Text: KAVK 241550Z AUTO 29018G22KT 10SM CLR 05/M04 A2995 RMK AO2
Loading
Personal Weather Stations






























Interactive Weather Map New forecast layout! Learn more

10-Day Weather Forecast

Advertisements
Track Severe Weather on mobile